createdAt,value
2017-09-02T00:01:38.719Z,0
2017-09-02T00:11:40.484Z,0
2017-09-02T00:21:38.791Z,0
2017-09-02T00:31:38.728Z,0
2017-09-02T00:41:38.770Z,0
2017-09-02T00:51:38.828Z,0
2017-09-02T01:01:39.393Z,0
2017-09-02T01:11:38.992Z,0
2017-09-02T01:21:39.772Z,0
2017-09-02T01:31:39.163Z,0
2017-09-02T01:41:38.757Z,0
2017-09-02T01:51:39.365Z,0
2017-09-02T02:01:38.783Z,0
2017-09-02T02:11:38.788Z,0
2017-09-02T02:21:38.833Z,0
2017-09-02T02:31:38.722Z,0
2017-09-02T02:41:38.721Z,0
2017-09-02T02:51:38.825Z,0
2017-09-02T03:01:38.750Z,0
2017-09-02T03:11:38.732Z,0
2017-09-02T03:21:38.744Z,0
2017-09-02T03:31:38.721Z,0
2017-09-02T03:41:38.811Z,0
2017-09-02T03:51:38.737Z,0
2017-09-02T04:01:38.730Z,0
2017-09-02T04:11:39.483Z,0
2017-09-02T04:21:38.734Z,0
2017-09-02T04:31:39.037Z,0
2017-09-02T04:41:38.765Z,0
2017-09-02T04:51:38.742Z,10
2017-09-02T05:01:38.773Z,15
2017-09-02T05:11:38.852Z,25
2017-09-02T05:21:38.700Z,35
2017-09-02T05:31:38.797Z,45
2017-09-02T05:41:38.772Z,60
2017-09-02T05:51:38.974Z,65
2017-09-02T06:01:38.837Z,75
2017-09-02T06:11:38.716Z,75
2017-09-02T06:21:38.781Z,85
2017-09-02T06:31:38.714Z,85
2017-09-02T06:41:39.305Z,90
2017-09-02T06:51:39.057Z,95
2017-09-02T07:01:38.888Z,95
2017-09-02T07:11:38.816Z,100
2017-09-02T07:21:38.745Z,105
2017-09-02T07:31:38.720Z,105
2017-09-02T07:41:38.760Z,115
2017-09-02T07:51:38.728Z,125
2017-09-02T08:01:38.921Z,170
2017-09-02T08:11:38.888Z,270
2017-09-02T08:21:39.360Z,270
2017-09-02T08:31:39.494Z,145
2017-09-02T08:41:39.294Z,120
2017-09-02T08:51:39.114Z,130
2017-09-02T09:01:39.059Z,125
2017-09-02T09:11:39.110Z,135
2017-09-02T09:21:38.831Z,170
2017-09-02T09:31:38.928Z,185
2017-09-02T09:41:38.689Z,145
2017-09-02T09:51:39.059Z,185
2017-09-02T10:01:39.020Z,135
2017-09-02T10:11:38.730Z,165
2017-09-02T10:21:38.724Z,225
2017-09-02T10:31:38.732Z,165
2017-09-02T10:41:38.757Z,150
2017-09-02T10:51:38.864Z,140
2017-09-02T11:01:38.779Z,140
2017-09-02T11:11:39.162Z,155
2017-09-02T11:21:38.744Z,130
2017-09-02T11:31:38.844Z,125
2017-09-02T11:41:39.878Z,125
2017-09-02T11:51:38.932Z,130
2017-09-02T12:11:45.700Z,165
2017-09-02T12:21:40.857Z,185
2017-09-02T12:31:56.491Z,125
2017-09-02T12:41:55.132Z,180
2017-09-02T12:51:45.358Z,200
2017-09-02T13:01:52.738Z,205
2017-09-02T13:11:46.227Z,205
2017-09-02T13:31:40.017Z,130
2017-09-02T13:42:03.058Z,180
2017-09-02T14:02:01.328Z,190
2017-09-02T14:21:43.289Z,145
2017-09-02T14:31:39.883Z,120
2017-09-02T14:41:39.007Z,145
2017-09-02T14:51:39.886Z,140
2017-09-02T15:01:54.208Z,150
2017-09-02T15:11:43.615Z,150
2017-09-02T15:21:38.821Z,150
2017-09-02T15:31:38.804Z,130
2017-09-02T15:41:39.779Z,130
2017-09-02T15:51:38.711Z,130
2017-09-02T16:01:42.778Z,155
2017-09-02T16:11:38.877Z,160
2017-09-02T16:21:38.793Z,140
2017-09-02T16:31:38.809Z,115
2017-09-02T16:41:38.826Z,85
2017-09-02T16:51:38.780Z,70
2017-09-02T17:01:38.840Z,65
2017-09-02T17:11:38.759Z,70
2017-09-02T17:21:38.866Z,55
2017-09-02T17:31:38.802Z,35
2017-09-02T17:41:38.800Z,25
2017-09-02T17:51:38.868Z,15
2017-09-02T18:01:38.796Z,10
2017-09-02T18:11:38.857Z,5
2017-09-02T18:21:38.835Z,0
2017-09-02T18:31:38.923Z,0
2017-09-02T18:41:38.819Z,0
2017-09-02T18:51:40.196Z,0
2017-09-02T19:01:38.916Z,0
2017-09-02T19:11:38.908Z,0
2017-09-02T19:21:39.041Z,0
2017-09-02T19:31:38.918Z,0
2017-09-02T19:41:38.905Z,0
2017-09-02T19:52:10.394Z,0
2017-09-02T20:02:42.178Z,0
2017-09-02T20:12:44.569Z,0
2017-09-02T20:22:42.821Z,0
2017-09-02T20:32:42.804Z,0
2017-09-02T20:42:41.772Z,0
2017-09-02T20:52:35.338Z,0
2017-09-02T21:02:43.686Z,0
2017-09-02T21:12:42.301Z,0
2017-09-02T21:21:38.991Z,0
2017-09-02T21:31:39.018Z,0
2017-09-02T21:41:38.977Z,0
2017-09-02T21:51:39.214Z,0
2017-09-02T22:01:39.006Z,0
2017-09-02T22:11:39.315Z,0
2017-09-02T22:21:39.169Z,0
2017-09-02T22:31:39.109Z,0
2017-09-02T22:41:39.063Z,0
2017-09-02T22:51:39.068Z,0
2017-09-02T23:01:39.195Z,0
2017-09-02T23:11:39.068Z,0
2017-09-02T23:21:39.118Z,0
2017-09-02T23:31:39.233Z,0
2017-09-02T23:41:39.126Z,0
2017-09-02T23:51:39.211Z,0
